Página principal
METAR-TAF:

METAR-TAF

Aeroportos :

Florianópolis, Santa Catarina, Brasil

Aeroporto Internacional de Florianópolis

latitude: 27-40S, longitude: 048-33W, altura: 5 m

Observação actual do tempo

O boletim foi feito há 45 minutos, às 23:00 UTC
Vento 10 kt de su-sudeste, variando entre es-sudeste e sudoeste
Temperatura 21°C
Humidade 73%
Pressão 1014 hPa
Visibilidade 10 km ou mais
Poucas nuvensa uma altura de 3000 ft
Nuvens dispersasa uma altura de 10000 ft

METAR: SBFL 192300Z 16010KT 120V220 9999 FEW030 SCT100 21/16 Q1014

Hora: 21:45 (23:45 UTC)

Previsão

O boletim foi feito há 2 horas e 15 minutos, às 21:30 UTC
Previsão válida de 20 às 00 UTC a 20 às 24 UTC
Vento 8 kt de sul
Visibilidade 10 km ou mais
Nuvens dispersasa uma altura de 3000 ft
Tornando-se
de 20 às 12 UTC a 20 às 14 UTC
Vento 6 kt de es-sudeste
Nuvens fragmentadasa uma altura de 3500 ft

TAF: SBFL 192130Z 2000/2024 17008KT 9999 SCT030 TN20/2008Z TX24/2016Z BECMG 2012/2014 12006KT BKN035 RMK PDW

Observações e previsões do tempo de mais de 4000 aeroportos (mensagens METAR e TAF).

As estações disponíveis são os pontos amarelos e vermelhos sobre o mapa.

Mova o rato sobre o mapa para ver o nome da estação.

Depois clique no ponto para visualizar as observações e previsões meteorológicas.

Para alterar o mapa : clique nos botões verdes com uma cruz preta para aumentar o zoom; no botão verde com uma pitada de zoom; ou nas setas verdes para mapas adjacentes.


METAR-TAF: